sensor_id;sensor_type;location;lat;lon;timestamp;pressure;altitude;pressure_sealevel;temperature;humidity
48404;BME280;34202;52.536;6.042;2023-05-24T00:01:52;102556.52;;;8.49;83.49
48404;BME280;34202;52.536;6.042;2023-05-24T00:06:55;102551.77;;;8.44;83.48
48404;BME280;34202;52.536;6.042;2023-05-24T00:11:57;102545.13;;;8.39;83.67
48404;BME280;34202;52.536;6.042;2023-05-24T00:16:58;102547.20;;;8.35;84.11
48404;BME280;34202;52.536;6.042;2023-05-24T00:21:58;102547.73;;;8.31;84.17
48404;BME280;34202;52.536;6.042;2023-05-24T00:26:58;102546.48;;;8.26;84.54
48404;BME280;34202;52.536;6.042;2023-05-24T00:31:59;102544.92;;;8.22;84.88
48404;BME280;34202;52.536;6.042;2023-05-24T00:36:59;102537.97;;;8.18;85.07
48404;BME280;34202;52.536;6.042;2023-05-24T00:41:59;102528.73;;;8.13;85.09
48404;BME280;34202;52.536;6.042;2023-05-24T00:47:00;102529.45;;;8.09;85.13
48404;BME280;34202;52.536;6.042;2023-05-24T00:52:01;102529.84;;;8.07;85.36
48404;BME280;34202;52.536;6.042;2023-05-24T00:57:02;102524.35;;;8.04;85.78
48404;BME280;34202;52.536;6.042;2023-05-24T01:02:02;102523.17;;;8.01;86.07
48404;BME280;34202;52.536;6.042;2023-05-24T01:07:17;102524.95;;;7.98;86.19
48404;BME280;34202;52.536;6.042;2023-05-24T01:12:35;102523.42;;;7.95;86.31
48404;BME280;34202;52.536;6.042;2023-05-24T01:23:24;102516.36;;;7.92;86.86
48404;BME280;34202;52.536;6.042;2023-05-24T01:28:27;102517.38;;;7.91;87.24
48404;BME280;34202;52.536;6.042;2023-05-24T01:33:29;102524.24;;;7.90;88.10
48404;BME280;34202;52.536;6.042;2023-05-24T01:38:29;102531.67;;;7.89;88.71
48404;BME280;34202;52.536;6.042;2023-05-24T01:43:39;102527.71;;;7.89;89.24
48404;BME280;34202;52.536;6.042;2023-05-24T01:54:03;102525.17;;;7.99;90.50
48404;BME280;34202;52.536;6.042;2023-05-24T01:59:06;102520.48;;;8.03;90.76
48404;BME280;34202;52.536;6.042;2023-05-24T02:04:06;102518.70;;;8.06;90.70
48404;BME280;34202;52.536;6.042;2023-05-24T02:09:07;102512.04;;;8.08;91.13
48404;BME280;34202;52.536;6.042;2023-05-24T02:14:07;102504.55;;;8.11;91.03
48404;BME280;34202;52.536;6.042;2023-05-24T02:19:08;102495.94;;;8.12;91.59
48404;BME280;34202;52.536;6.042;2023-05-24T02:24:08;102499.52;;;8.15;91.56
48404;BME280;34202;52.536;6.042;2023-05-24T02:29:11;102494.50;;;8.16;92.03
48404;BME280;34202;52.536;6.042;2023-05-24T02:34:12;102503.48;;;8.19;91.79
48404;BME280;34202;52.536;6.042;2023-05-24T02:39:12;102499.04;;;8.20;92.13
48404;BME280;34202;52.536;6.042;2023-05-24T02:44:13;102496.67;;;8.22;91.90
48404;BME280;34202;52.536;6.042;2023-05-24T02:49:13;102494.46;;;8.23;91.69
48404;BME280;34202;52.536;6.042;2023-05-24T02:54:14;102487.35;;;8.23;91.69
48404;BME280;34202;52.536;6.042;2023-05-24T02:59:16;102489.65;;;8.24;91.78
48404;BME280;34202;52.536;6.042;2023-05-24T03:04:17;102488.75;;;8.23;92.02
48404;BME280;34202;52.536;6.042;2023-05-24T03:09:17;102490.30;;;8.22;91.98
48404;BME280;34202;52.536;6.042;2023-05-24T03:14:18;102489.95;;;8.23;92.13
48404;BME280;34202;52.536;6.042;2023-05-24T03:19:21;102488.23;;;8.23;92.16
48404;BME280;34202;52.536;6.042;2023-05-24T03:24:21;102486.94;;;8.21;92.22
48404;BME280;34202;52.536;6.042;2023-05-24T03:29:22;102485.52;;;8.20;92.15
48404;BME280;34202;52.536;6.042;2023-05-24T03:34:22;102483.92;;;8.20;92.30
48404;BME280;34202;52.536;6.042;2023-05-24T03:39:23;102481.29;;;8.19;92.43
48404;BME280;34202;52.536;6.042;2023-05-24T03:44:23;102482.30;;;8.18;92.36
48404;BME280;34202;52.536;6.042;2023-05-24T03:49:23;102489.84;;;8.16;92.43
48404;BME280;34202;52.536;6.042;2023-05-24T03:54:24;102490.40;;;8.13;92.37
48404;BME280;34202;52.536;6.042;2023-05-24T03:59:24;102495.89;;;8.11;92.76
48404;BME280;34202;52.536;6.042;2023-05-24T04:04:25;102493.92;;;8.10;92.77
48404;BME280;34202;52.536;6.042;2023-05-24T04:09:25;102495.46;;;8.10;92.96
48404;BME280;34202;52.536;6.042;2023-05-24T04:14:25;102498.41;;;8.09;93.07
48404;BME280;34202;52.536;6.042;2023-05-24T04:19:26;102497.48;;;8.08;93.07
48404;BME280;34202;52.536;6.042;2023-05-24T04:24:26;102500.73;;;8.07;93.18
48404;BME280;34202;52.536;6.042;2023-05-24T04:29:27;102505.42;;;8.07;93.42
48404;BME280;34202;52.536;6.042;2023-05-24T04:34:28;102504.27;;;8.08;93.59
48404;BME280;34202;52.536;6.042;2023-05-24T04:39:32;102498.13;;;8.11;94.31
48404;BME280;34202;52.536;6.042;2023-05-24T04:44:33;102500.32;;;8.14;94.59
48404;BME280;34202;52.536;6.042;2023-05-24T04:49:33;102499.79;;;8.18;95.10
48404;BME280;34202;52.536;6.042;2023-05-24T04:54:34;102495.13;;;8.22;95.44
48404;BME280;34202;52.536;6.042;2023-05-24T04:59:35;102494.61;;;8.26;95.85
48404;BME280;34202;52.536;6.042;2023-05-24T05:04:35;102492.40;;;8.31;96.13
48404;BME280;34202;52.536;6.042;2023-05-24T05:09:36;102492.98;;;8.37;96.36
48404;BME280;34202;52.536;6.042;2023-05-24T05:14:36;102490.67;;;8.43;96.81
48404;BME280;34202;52.536;6.042;2023-05-24T05:19:37;102494.85;;;8.52;97.26
48404;BME280;34202;52.536;6.042;2023-05-24T05:24:37;102499.34;;;8.60;97.89
48404;BME280;34202;52.536;6.042;2023-05-24T05:29:37;102507.42;;;8.70;98.30
48404;BME280;34202;52.536;6.042;2023-05-24T05:34:38;102517.98;;;8.82;98.91
48404;BME280;34202;52.536;6.042;2023-05-24T05:39:38;102522.31;;;8.96;99.41
48404;BME280;34202;52.536;6.042;2023-05-24T05:44:38;102518.73;;;9.10;99.66
48404;BME280;34202;52.536;6.042;2023-05-24T05:49:39;102524.90;;;9.26;99.66
48404;BME280;34202;52.536;6.042;2023-05-24T05:54:39;102527.52;;;9.44;100.00
48404;BME280;34202;52.536;6.042;2023-05-24T05:59:40;102530.91;;;9.65;99.92
48404;BME280;34202;52.536;6.042;2023-05-24T06:04:40;102533.05;;;9.85;99.82
48404;BME280;34202;52.536;6.042;2023-05-24T06:09:40;102537.09;;;10.05;99.57
48404;BME280;34202;52.536;6.042;2023-05-24T06:14:41;102536.16;;;10.23;99.02
48404;BME280;34202;52.536;6.042;2023-05-24T06:19:41;102541.52;;;10.37;98.37
48404;BME280;34202;52.536;6.042;2023-05-24T06:24:42;102537.25;;;10.54;97.79
48404;BME280;34202;52.536;6.042;2023-05-24T06:29:43;102536.84;;;10.68;97.16
48404;BME280;34202;52.536;6.042;2023-05-24T06:34:43;102540.27;;;10.82;96.94
48404;BME280;34202;52.536;6.042;2023-05-24T06:39:43;102545.16;;;10.99;96.15
48404;BME280;34202;52.536;6.042;2023-05-24T06:44:44;102547.88;;;11.08;94.87
48404;BME280;34202;52.536;6.042;2023-05-24T06:49:44;102554.33;;;11.18;93.87
48404;BME280;34202;52.536;6.042;2023-05-24T06:54:48;102554.08;;;11.27;93.20
48404;BME280;34202;52.536;6.042;2023-05-24T06:59:49;102556.14;;;11.44;92.98
48404;BME280;34202;52.536;6.042;2023-05-24T07:04:49;102554.13;;;11.52;91.93
48404;BME280;34202;52.536;6.042;2023-05-24T07:09:50;102552.27;;;11.54;91.14
48404;BME280;34202;52.536;6.042;2023-05-24T07:14:51;102551.41;;;11.66;91.52
48404;BME280;34202;52.536;6.042;2023-05-24T07:19:52;102551.73;;;11.83;91.41
48404;BME280;34202;52.536;6.042;2023-05-24T07:24:52;102546.99;;;11.93;90.16
48404;BME280;34202;52.536;6.042;2023-05-24T07:29:53;102545.20;;;12.10;89.05
48404;BME280;34202;52.536;6.042;2023-05-24T07:34:53;102546.84;;;12.32;88.01
48404;BME280;34202;52.536;6.042;2023-05-24T07:39:54;102547.55;;;12.60;87.96
48404;BME280;34202;52.536;6.042;2023-05-24T07:44:54;102549.34;;;12.82;86.34
48404;BME280;34202;52.536;6.042;2023-05-24T07:49:55;102545.53;;;13.05;85.88
48404;BME280;34202;52.536;6.042;2023-05-24T07:54:56;102548.46;;;13.25;84.43
48404;BME280;34202;52.536;6.042;2023-05-24T07:59:56;102541.51;;;13.33;82.84
48404;BME280;34202;52.536;6.042;2023-05-24T08:04:56;102550.63;;;13.28;81.29
48404;BME280;34202;52.536;6.042;2023-05-24T08:09:57;102551.14;;;13.12;80.84
48404;BME280;34202;52.536;6.042;2023-05-24T08:14:58;102550.75;;;13.11;80.90
48404;BME280;34202;52.536;6.042;2023-05-24T08:19:58;102554.45;;;13.12;80.87
48404;BME280;34202;52.536;6.042;2023-05-24T08:24:58;102554.52;;;13.16;81.11
48404;BME280;34202;52.536;6.042;2023-05-24T08:29:59;102558.20;;;13.23;81.14
48404;BME280;34202;52.536;6.042;2023-05-24T08:34:59;102564.34;;;13.17;80.25
48404;BME280;34202;52.536;6.042;2023-05-24T08:40:00;102558.66;;;13.13;79.92
48404;BME280;34202;52.536;6.042;2023-05-24T08:45:08;102563.53;;;13.12;79.61
48404;BME280;34202;52.536;6.042;2023-05-24T08:50:10;102566.05;;;13.15;79.47
48404;BME280;34202;52.536;6.042;2023-05-24T08:55:10;102560.62;;;13.22;79.65
48404;BME280;34202;52.536;6.042;2023-05-24T09:00:12;102559.70;;;13.34;79.60
48404;BME280;34202;52.536;6.042;2023-05-24T09:05:14;102562.45;;;13.48;79.68
48404;BME280;34202;52.536;6.042;2023-05-24T09:10:18;102563.52;;;13.57;78.88
48404;BME280;34202;52.536;6.042;2023-05-24T09:15:19;102563.64;;;13.62;78.31
48404;BME280;34202;52.536;6.042;2023-05-24T09:20:20;102568.59;;;13.73;78.12
48404;BME280;34202;52.536;6.042;2023-05-24T09:25:20;102573.93;;;13.85;77.17
48404;BME280;34202;52.536;6.042;2023-05-24T09:30:21;102577.58;;;13.93;77.26
48404;BME280;34202;52.536;6.042;2023-05-24T09:35:22;102578.81;;;14.02;76.91
48404;BME280;34202;52.536;6.042;2023-05-24T09:40:23;102581.48;;;13.94;75.56
48404;BME280;34202;52.536;6.042;2023-05-24T09:45:23;102577.44;;;13.86;75.71
48404;BME280;34202;52.536;6.042;2023-05-24T09:50:24;102576.13;;;13.90;76.12
48404;BME280;34202;52.536;6.042;2023-05-24T09:55:26;102571.72;;;13.97;76.14
48404;BME280;34202;52.536;6.042;2023-05-24T10:00:27;102572.66;;;14.00;75.05
48404;BME280;34202;52.536;6.042;2023-05-24T10:05:28;102579.33;;;13.92;73.76
48404;BME280;34202;52.536;6.042;2023-05-24T10:10:31;102574.55;;;13.81;73.75
48404;BME280;34202;52.536;6.042;2023-05-24T10:15:31;102570.52;;;13.89;74.57
48404;BME280;34202;52.536;6.042;2023-05-24T10:20:32;102567.48;;;14.13;75.25
48404;BME280;34202;52.536;6.042;2023-05-24T10:25:33;102563.25;;;14.30;74.69
48404;BME280;34202;52.536;6.042;2023-05-24T10:30:59;102561.69;;;14.49;74.67
48404;BME280;34202;52.536;6.042;2023-05-24T10:36:03;102565.88;;;14.67;73.47
48404;BME280;34202;52.536;6.042;2023-05-24T10:41:09;102562.91;;;14.78;73.63
48404;BME280;34202;52.536;6.042;2023-05-24T10:46:14;102568.20;;;15.01;73.49
48404;BME280;34202;52.536;6.042;2023-05-24T10:51:33;102568.61;;;15.06;72.09
48404;BME280;34202;52.536;6.042;2023-05-24T10:56:39;102566.69;;;15.18;71.91
48404;BME280;34202;52.536;6.042;2023-05-24T11:01:39;102563.23;;;15.32;71.56
48404;BME280;34202;52.536;6.042;2023-05-24T11:11:54;102558.93;;;15.75;71.12
48404;BME280;34202;52.536;6.042;2023-05-24T11:16:56;102566.67;;;15.77;69.75
48404;BME280;34202;52.536;6.042;2023-05-24T11:21:57;102561.48;;;15.71;68.34
48404;BME280;34202;52.536;6.042;2023-05-24T11:26:59;102564.01;;;15.76;69.39
48404;BME280;34202;52.536;6.042;2023-05-24T11:32:01;102558.95;;;15.91;69.01
48404;BME280;34202;52.536;6.042;2023-05-24T11:37:05;102554.17;;;15.89;68.02
48404;BME280;34202;52.536;6.042;2023-05-24T11:42:07;102559.40;;;15.85;68.23
48404;BME280;34202;52.536;6.042;2023-05-24T11:47:08;102566.52;;;15.79;66.93
48404;BME280;34202;52.536;6.042;2023-05-24T11:52:08;102567.46;;;15.72;67.38
48404;BME280;34202;52.536;6.042;2023-05-24T11:57:11;102560.45;;;15.73;67.72
48404;BME280;34202;52.536;6.042;2023-05-24T12:02:13;102553.46;;;16.03;69.44
48404;BME280;34202;52.536;6.042;2023-05-24T12:07:13;102555.63;;;16.43;69.25
48404;BME280;34202;52.536;6.042;2023-05-24T12:12:15;102553.89;;;16.43;66.26
48404;BME280;34202;52.536;6.042;2023-05-24T12:17:16;102554.85;;;16.35;66.42
48404;BME280;34202;52.536;6.042;2023-05-24T12:22:17;102547.42;;;16.30;65.26
48404;BME280;34202;52.536;6.042;2023-05-24T12:27:17;102548.61;;;16.25;65.33
48404;BME280;34202;52.536;6.042;2023-05-24T12:32:18;102543.57;;;16.30;65.67
48404;BME280;34202;52.536;6.042;2023-05-24T12:37:18;102543.42;;;16.53;66.17
48404;BME280;34202;52.536;6.042;2023-05-24T12:42:19;102545.00;;;16.72;66.12
48404;BME280;34202;52.536;6.042;2023-05-24T12:47:22;102549.48;;;16.79;65.66
48404;BME280;34202;52.536;6.042;2023-05-24T12:52:23;102561.55;;;16.54;63.51
48404;BME280;34202;52.536;6.042;2023-05-24T13:01:09;102553.86;;;16.07;63.30
48404;BME280;34202;52.536;6.042;2023-05-24T13:06:10;102556.20;;;15.81;64.10
48404;BME280;34202;52.536;6.042;2023-05-24T13:11:10;102550.83;;;15.62;64.59
48404;BME280;34202;52.536;6.042;2023-05-24T13:16:12;102552.45;;;15.65;65.36
48404;BME280;34202;52.536;6.042;2023-05-24T13:21:12;102558.52;;;15.73;64.23
48404;BME280;34202;52.536;6.042;2023-05-24T13:26:13;102560.58;;;15.82;63.78
48404;BME280;34202;52.536;6.042;2023-05-24T13:31:13;102560.95;;;15.84;62.84
48404;BME280;34202;52.536;6.042;2023-05-24T13:36:14;102565.98;;;15.78;63.36
48404;BME280;34202;52.536;6.042;2023-05-24T13:41:14;102556.54;;;15.70;63.27
48404;BME280;34202;52.536;6.042;2023-05-24T13:46:15;102551.51;;;15.60;62.56
48404;BME280;34202;52.536;6.042;2023-05-24T13:51:15;102552.05;;;15.48;62.24
48404;BME280;34202;52.536;6.042;2023-05-24T13:56:18;102553.62;;;15.35;62.53
48404;BME280;34202;52.536;6.042;2023-05-24T14:01:19;102552.23;;;15.24;62.95
48404;BME280;34202;52.536;6.042;2023-05-24T14:06:19;102558.81;;;15.30;63.80
48404;BME280;34202;52.536;6.042;2023-05-24T14:11:21;102556.55;;;15.31;63.26
48404;BME280;34202;52.536;6.042;2023-05-24T14:16:22;102560.39;;;15.18;63.02
48404;BME280;34202;52.536;6.042;2023-05-24T14:21:23;102559.45;;;15.13;63.72
48404;BME280;34202;52.536;6.042;2023-05-24T14:26:25;102561.83;;;15.21;63.97
48404;BME280;34202;52.536;6.042;2023-05-24T14:31:26;102566.26;;;15.24;63.70
48404;BME280;34202;52.536;6.042;2023-05-24T14:36:27;102566.28;;;15.25;63.79
48404;BME280;34202;52.536;6.042;2023-05-24T14:41:27;102563.23;;;15.19;63.21
48404;BME280;34202;52.536;6.042;2023-05-24T14:46:29;102561.11;;;15.08;63.51
48404;BME280;34202;52.536;6.042;2023-05-24T14:51:30;102564.08;;;15.07;64.14
48404;BME280;34202;52.536;6.042;2023-05-24T14:56:31;102562.59;;;15.02;63.96
48404;BME280;34202;52.536;6.042;2023-05-24T15:01:33;102563.80;;;15.00;64.85
48404;BME280;34202;52.536;6.042;2023-05-24T15:06:33;102568.10;;;15.06;64.21
48404;BME280;34202;52.536;6.042;2023-05-24T15:11:36;102568.00;;;15.00;63.80
48404;BME280;34202;52.536;6.042;2023-05-24T15:16:37;102571.24;;;15.05;64.45
48404;BME280;34202;52.536;6.042;2023-05-24T15:21:37;102569.84;;;15.17;64.49
48404;BME280;34202;52.536;6.042;2023-05-24T15:26:39;102563.70;;;15.29;64.45
48404;BME280;34202;52.536;6.042;2023-05-24T15:31:40;102569.59;;;15.36;63.99
48404;BME280;34202;52.536;6.042;2023-05-24T15:36:40;102572.27;;;15.39;63.60
48404;BME280;34202;52.536;6.042;2023-05-24T15:41:41;102566.39;;;15.45;64.03
48404;BME280;34202;52.536;6.042;2023-05-24T15:46:43;102570.88;;;15.52;63.90
48404;BME280;34202;52.536;6.042;2023-05-24T15:51:44;102570.80;;;15.60;64.17
48404;BME280;34202;52.536;6.042;2023-05-24T15:56:45;102570.73;;;15.66;63.61
48404;BME280;34202;52.536;6.042;2023-05-24T16:01:46;102578.37;;;15.61;62.92
48404;BME280;34202;52.536;6.042;2023-05-24T16:06:46;102573.71;;;15.54;62.91
48404;BME280;34202;52.536;6.042;2023-05-24T16:11:47;102568.66;;;15.57;63.41
48404;BME280;34202;52.536;6.042;2023-05-24T16:16:49;102567.84;;;15.61;63.00
48404;BME280;34202;52.536;6.042;2023-05-24T16:21:49;102560.64;;;15.61;62.65
48404;BME280;34202;52.536;6.042;2023-05-24T16:26:50;102557.30;;;15.60;62.47
48404;BME280;34202;52.536;6.042;2023-05-24T16:31:52;102551.07;;;15.54;62.26
48404;BME280;34202;52.536;6.042;2023-05-24T16:36:52;102553.30;;;15.50;62.38
48404;BME280;34202;52.536;6.042;2023-05-24T16:41:53;102548.30;;;15.44;62.63
48404;BME280;34202;52.536;6.042;2023-05-24T16:46:53;102546.23;;;15.46;62.84
48404;BME280;34202;52.536;6.042;2023-05-24T16:51:54;102543.31;;;15.51;63.09
48404;BME280;34202;52.536;6.042;2023-05-24T16:56:54;102539.51;;;15.55;63.19
48404;BME280;34202;52.536;6.042;2023-05-24T17:01:56;102543.69;;;15.52;62.93
48404;BME280;34202;52.536;6.042;2023-05-24T17:06:57;102544.55;;;15.51;62.88
48404;BME280;34202;52.536;6.042;2023-05-24T17:11:57;102542.71;;;15.46;62.84
48404;BME280;34202;52.536;6.042;2023-05-24T17:16:58;102540.59;;;15.44;63.17
48404;BME280;34202;52.536;6.042;2023-05-24T17:21:58;102538.84;;;15.44;63.35
48404;BME280;34202;52.536;6.042;2023-05-24T17:26:59;102540.35;;;15.52;63.54
48404;BME280;34202;52.536;6.042;2023-05-24T17:32:02;102540.18;;;15.52;63.34
48404;BME280;34202;52.536;6.042;2023-05-24T17:37:04;102539.21;;;15.46;63.10
48404;BME280;34202;52.536;6.042;2023-05-24T17:42:05;102538.72;;;15.36;63.06
48404;BME280;34202;52.536;6.042;2023-05-24T17:47:06;102541.27;;;15.29;63.55
48404;BME280;34202;52.536;6.042;2023-05-24T17:52:07;102546.89;;;15.30;63.79
48404;BME280;34202;52.536;6.042;2023-05-24T17:57:09;102546.42;;;15.22;63.76
48404;BME280;34202;52.536;6.042;2023-05-24T18:02:11;102549.51;;;15.18;64.54
48404;BME280;34202;52.536;6.042;2023-05-24T18:07:11;102553.21;;;15.20;64.92
48404;BME280;34202;52.536;6.042;2023-05-24T18:12:14;102560.05;;;15.19;64.75
48404;BME280;34202;52.536;6.042;2023-05-24T18:17:16;102556.14;;;15.15;64.79
48404;BME280;34202;52.536;6.042;2023-05-24T18:22:16;102554.16;;;15.12;64.99
48404;BME280;34202;52.536;6.042;2023-05-24T18:27:18;102560.61;;;15.09;65.23
48404;BME280;34202;52.536;6.042;2023-05-24T18:32:19;102557.79;;;15.08;65.45
48404;BME280;34202;52.536;6.042;2023-05-24T18:37:19;102559.52;;;15.07;65.60
48404;BME280;34202;52.536;6.042;2023-05-24T18:42:23;102559.87;;;14.95;65.74
48404;BME280;34202;52.536;6.042;2023-05-24T18:47:25;102562.95;;;14.91;66.59
48404;BME280;34202;52.536;6.042;2023-05-24T18:52:30;102564.14;;;14.89;66.81
48404;BME280;34202;52.536;6.042;2023-05-24T18:57:32;102566.67;;;14.82;66.71
48404;BME280;34202;52.536;6.042;2023-05-24T19:02:33;102570.52;;;14.72;66.78
48404;BME280;34202;52.536;6.042;2023-05-24T19:07:37;102571.77;;;14.62;67.08
48404;BME280;34202;52.536;6.042;2023-05-24T19:12:38;102573.46;;;14.52;67.47
48404;BME280;34202;52.536;6.042;2023-05-24T19:17:40;102576.86;;;14.46;67.72
48404;BME280;34202;52.536;6.042;2023-05-24T19:22:42;102579.52;;;14.38;68.04
48404;BME280;34202;52.536;6.042;2023-05-24T19:27:44;102584.98;;;14.30;68.43
48404;BME280;34202;52.536;6.042;2023-05-24T19:32:45;102592.52;;;14.22;68.66
48404;BME280;34202;52.536;6.042;2023-05-24T19:37:47;102597.11;;;14.06;69.12
48404;BME280;34202;52.536;6.042;2023-05-24T19:42:48;102609.55;;;13.89;69.64
48404;BME280;34202;52.536;6.042;2023-05-24T19:47:48;102613.70;;;13.79;70.29
48404;BME280;34202;52.536;6.042;2023-05-24T19:52:49;102617.17;;;13.70;70.70
48404;BME280;34202;52.536;6.042;2023-05-24T19:57:50;102622.23;;;13.61;71.08
48404;BME280;34202;52.536;6.042;2023-05-24T20:02:51;102626.19;;;13.51;71.19
48404;BME280;34202;52.536;6.042;2023-05-24T20:07:55;102631.16;;;13.39;71.59
48404;BME280;34202;52.536;6.042;2023-05-24T20:12:57;102636.72;;;13.30;71.87
48404;BME280;34202;52.536;6.042;2023-05-24T20:17:57;102645.14;;;13.18;72.16
48404;BME280;34202;52.536;6.042;2023-05-24T20:23:00;102652.20;;;13.00;72.50
48404;BME280;34202;52.536;6.042;2023-05-24T20:28:01;102658.42;;;12.84;73.07
48404;BME280;34202;52.536;6.042;2023-05-24T20:33:02;102661.98;;;12.60;73.33
48404;BME280;34202;52.536;6.042;2023-05-24T20:38:03;102669.73;;;12.44;73.99
48404;BME280;34202;52.536;6.042;2023-05-24T20:43:04;102673.23;;;12.37;74.58
48404;BME280;34202;52.536;6.042;2023-05-24T20:48:05;102676.79;;;12.34;75.03
48404;BME280;34202;52.536;6.042;2023-05-24T20:53:05;102678.20;;;12.28;75.33
48404;BME280;34202;52.536;6.042;2023-05-24T20:58:06;102674.47;;;12.20;75.60
48404;BME280;34202;52.536;6.042;2023-05-24T21:03:07;102673.20;;;12.07;75.71
48404;BME280;34202;52.536;6.042;2023-05-24T21:08:09;102677.55;;;11.89;75.92
48404;BME280;34202;52.536;6.042;2023-05-24T21:13:10;102683.00;;;11.74;76.48
48404;BME280;34202;52.536;6.042;2023-05-24T21:18:11;102688.13;;;11.66;77.10
48404;BME280;34202;52.536;6.042;2023-05-24T21:23:11;102692.08;;;11.58;77.47
48404;BME280;34202;52.536;6.042;2023-05-24T21:28:12;102693.89;;;11.44;77.74
48404;BME280;34202;52.536;6.042;2023-05-24T21:33:13;102693.67;;;11.31;78.27
48404;BME280;34202;52.536;6.042;2023-05-24T21:38:14;102698.11;;;11.19;78.85
48404;BME280;34202;52.536;6.042;2023-05-24T21:43:14;102698.56;;;11.12;79.70
48404;BME280;34202;52.536;6.042;2023-05-24T21:48:15;102698.10;;;11.08;80.34
48404;BME280;34202;52.536;6.042;2023-05-24T21:53:15;102702.52;;;11.05;80.99
48404;BME280;34202;52.536;6.042;2023-05-24T21:58:16;102710.06;;;11.01;81.46
48404;BME280;34202;52.536;6.042;2023-05-24T22:03:17;102715.80;;;10.96;81.96
48404;BME280;34202;52.536;6.042;2023-05-24T22:08:17;102717.40;;;10.87;82.20
48404;BME280;34202;52.536;6.042;2023-05-24T22:13:18;102725.41;;;10.77;82.71
48404;BME280;34202;52.536;6.042;2023-05-24T22:18:18;102735.01;;;10.68;83.05
48404;BME280;34202;52.536;6.042;2023-05-24T22:23:20;102739.13;;;10.61;83.41
48404;BME280;34202;52.536;6.042;2023-05-24T22:28:21;102735.76;;;10.55;83.93
48404;BME280;34202;52.536;6.042;2023-05-24T22:33:23;102728.42;;;10.50;84.31
48404;BME280;34202;52.536;6.042;2023-05-24T22:38:24;102727.38;;;10.40;84.72
48404;BME280;34202;52.536;6.042;2023-05-24T22:43:24;102730.48;;;10.31;84.94
48404;BME280;34202;52.536;6.042;2023-05-24T22:48:25;102726.27;;;10.21;85.51
48404;BME280;34202;52.536;6.042;2023-05-24T22:53:25;102728.36;;;10.16;85.87
48404;BME280;34202;52.536;6.042;2023-05-24T22:58:26;102727.63;;;10.16;86.36
48404;BME280;34202;52.536;6.042;2023-05-24T23:03:26;102731.41;;;10.14;86.58
48404;BME280;34202;52.536;6.042;2023-05-24T23:08:26;102737.30;;;10.14;86.66
48404;BME280;34202;52.536;6.042;2023-05-24T23:13:27;102746.93;;;10.11;86.86
48404;BME280;34202;52.536;6.042;2023-05-24T23:18:32;102754.88;;;10.01;86.91
48404;BME280;34202;52.536;6.042;2023-05-24T23:23:32;102749.92;;;9.90;87.31
48404;BME280;34202;52.536;6.042;2023-05-24T23:28:33;102747.46;;;9.85;87.59
48404;BME280;34202;52.536;6.042;2023-05-24T23:33:33;102751.52;;;9.82;87.83
48404;BME280;34202;52.536;6.042;2023-05-24T23:38:35;102754.62;;;9.77;87.95
48404;BME280;34202;52.536;6.042;2023-05-24T23:43:35;102756.38;;;9.69;88.21
48404;BME280;34202;52.536;6.042;2023-05-24T23:48:36;102754.46;;;9.60;88.50
48404;BME280;34202;52.536;6.042;2023-05-24T23:53:36;102757.40;;;9.56;88.94
48404;BME280;34202;52.536;6.042;2023-05-24T23:58:36;102753.27;;;9.52;89.17
